SKCL/CLO METAR and TAF weather

Enter ICAO airport designator
Station Type Date Time Source
SKCL METAR 2021/09/24 07:00 UTC NOAA

SKCL 240700Z 07003KT 9999 VCSH SCT020 BKN080 19/18 Q1015 NOSIG RMK VCSH/SE A3000


Station Type Date Time Source
SKCL Decoded METAR 2021/09/24 07:00 UTC NOAA

Cali / Alfonso Bonillaaragon, Colombia (SKCL) 03-33N 076-23W 969M
Sep 24, 2021 - 03:00 AM EDT / 2021.09.24 0700 UTC
Wind: from the ENE (070 degrees) at 3 MPH (3 KT):0
Visibility: greater than 7 mile(s):0
Sky conditions: mostly cloudy
Weather: showers in the vicinity
Temperature: 66 F (19 C)
Dew Point: 64 F (18 C)
Relative Humidity: 93%
Pressure (altimeter): 29.97 in. Hg (1015 hPa)
ob: SKCL 240700Z 07003KT 9999 VCSH SCT020 BKN080 19/18 Q1015 NOSIG RMK VCSH/SE A3000
cycle: 7

Station Type Date Time Source
SKCL TAF 2021/09/24 06:43 UTC NOAA

TAF SKCL 240430Z 2406/2506 36004KT 9999 FEW030
TEMPO 2419/2423 32010KT SCT020TCU TX29/2420Z TN19/2410Z

Example: see airport list